createdAt,value
2018-12-15T00:00:45.304Z,-0.50
2018-12-15T00:03:12.772Z,-0.50
2018-12-15T00:05:40.237Z,-0.40
2018-12-15T00:08:07.725Z,-0.30
2018-12-15T00:10:35.181Z,-0.30
2018-12-15T00:13:02.654Z,-0.40
2018-12-15T00:15:30.169Z,-0.40
2018-12-15T00:17:57.660Z,-0.30
2018-12-15T00:20:25.116Z,-0.20
2018-12-15T00:22:52.580Z,-0.10
2018-12-15T00:25:20.085Z,-0.20
2018-12-15T00:27:47.553Z,-0.30
2018-12-15T00:30:15.018Z,-0.30
2018-12-15T00:32:42.486Z,-0.40
2018-12-15T00:35:09.972Z,-0.30
2018-12-15T00:37:37.483Z,-0.30
2018-12-15T00:40:05.258Z,-0.30
2018-12-15T00:42:33.107Z,-0.20
2018-12-15T00:45:00.593Z,-0.20
2018-12-15T00:47:28.100Z,-0.20
2018-12-15T00:49:55.536Z,-0.30
2018-12-15T00:52:23.001Z,-0.30
2018-12-15T00:54:50.528Z,-0.30
2018-12-15T00:57:17.967Z,-0.30
2018-12-15T00:59:45.414Z,-0.40
2018-12-15T01:02:12.924Z,-0.20
2018-12-15T01:04:40.402Z,-0.10
2018-12-15T01:07:07.897Z,-0.10
2018-12-15T01:09:35.378Z,-0.30
2018-12-15T01:12:02.828Z,-0.30
2018-12-15T01:14:30.285Z,-0.20
2018-12-15T01:16:57.789Z,-0.10
2018-12-15T01:19:25.245Z,-0.10
2018-12-15T01:21:52.726Z,-0.20
2018-12-15T01:24:20.184Z,-0.10
2018-12-15T01:26:47.644Z,-0.20
2018-12-15T01:29:15.126Z,-0.10
2018-12-15T01:31:42.602Z,-0.30
2018-12-15T01:34:10.074Z,-0.20
2018-12-15T01:36:37.547Z,-0.20
2018-12-15T01:39:06.187Z,-0.30
2018-12-15T01:41:33.695Z,-0.40
2018-12-15T01:44:01.142Z,-0.30
2018-12-15T01:46:28.610Z,-0.30
2018-12-15T01:48:56.077Z,-0.40
2018-12-15T01:51:23.581Z,-0.40
2018-12-15T01:53:51.054Z,-0.30
2018-12-15T01:56:18.511Z,-0.20
2018-12-15T01:58:45.982Z,-0.30
2018-12-15T02:01:13.432Z,-0.40
2018-12-15T02:03:40.893Z,-0.30
2018-12-15T02:06:08.357Z,-0.40
2018-12-15T02:08:35.906Z,-0.30
2018-12-15T02:11:03.424Z,-0.20
2018-12-15T02:13:30.921Z,-0.30
2018-12-15T02:15:58.385Z,-0.30
2018-12-15T02:18:25.856Z,-0.30
2018-12-15T02:20:53.316Z,-0.40
2018-12-15T02:23:20.803Z,-0.40
2018-12-15T02:25:48.293Z,-0.30
2018-12-15T02:28:15.763Z,-0.10
2018-12-15T02:30:43.255Z,-0.20
2018-12-15T02:33:10.709Z,-0.40
2018-12-15T02:35:38.232Z,-0.30
2018-12-15T02:38:05.677Z,-0.10
2018-12-15T02:40:33.145Z,0.00
2018-12-15T02:43:00.610Z,0.00
2018-12-15T02:45:28.075Z,-0.10
2018-12-15T02:47:55.560Z,-0.20
2018-12-15T02:50:23.028Z,-0.20
2018-12-15T02:52:50.500Z,-0.30
2018-12-15T02:55:17.952Z,-0.10
2018-12-15T02:57:45.413Z,0.10
2018-12-15T03:00:13.827Z,0.00
2018-12-15T03:02:41.283Z,0.10
2018-12-15T03:05:08.786Z,0.10
2018-12-15T03:07:36.250Z,0.00
2018-12-15T03:10:05.478Z,0.10
2018-12-15T03:12:32.939Z,0.20
2018-12-15T03:15:00.403Z,0.10
2018-12-15T03:17:27.904Z,0.10
2018-12-15T03:19:59.238Z,0.20
2018-12-15T03:22:26.734Z,0.30
2018-12-15T03:24:54.322Z,0.30
2018-12-15T03:27:21.860Z,0.30
2018-12-15T03:29:49.330Z,0.40
2018-12-15T03:32:16.827Z,0.40
2018-12-15T03:34:44.282Z,0.50
2018-12-15T03:37:11.795Z,0.40
2018-12-15T03:39:39.259Z,0.50
2018-12-15T03:42:06.736Z,0.40
2018-12-15T03:44:34.210Z,0.20
2018-12-15T03:47:01.687Z,0.20
2018-12-15T03:49:29.155Z,0.30
2018-12-15T03:51:56.641Z,0.20
2018-12-15T03:54:24.100Z,0.10
2018-12-15T03:56:51.575Z,0.20
2018-12-15T03:59:19.568Z,0.40
2018-12-15T04:01:47.066Z,0.50
2018-12-15T04:04:14.527Z,0.30
2018-12-15T04:06:42.030Z,0.20
2018-12-15T04:09:09.510Z,0.30
2018-12-15T04:11:37.022Z,0.40
2018-12-15T04:14:04.539Z,0.60
2018-12-15T04:16:32.000Z,0.40
2018-12-15T04:18:59.474Z,0.30
2018-12-15T04:21:26.938Z,0.20
2018-12-15T04:23:54.402Z,0.40
2018-12-15T04:26:21.862Z,0.40
2018-12-15T04:28:49.366Z,0.50
2018-12-15T04:31:16.828Z,0.40
2018-12-15T04:33:44.337Z,0.40
2018-12-15T04:36:16.195Z,0.30
2018-12-15T04:38:43.706Z,0.30
2018-12-15T04:41:12.215Z,0.20
2018-12-15T04:43:39.679Z,0.10
2018-12-15T04:46:07.188Z,0.00
2018-12-15T04:48:34.668Z,0.00
2018-12-15T04:51:02.171Z,0.20
2018-12-15T04:53:29.705Z,0.10
2018-12-15T04:55:57.302Z,0.10
2018-12-15T04:58:24.775Z,0.10
2018-12-15T05:00:52.251Z,0.40
2018-12-15T05:03:19.718Z,0.10
2018-12-15T05:05:47.220Z,0.30
2018-12-15T05:08:14.686Z,0.20
2018-12-15T05:10:42.142Z,0.10
2018-12-15T05:13:09.626Z,0.20
2018-12-15T05:15:37.100Z,0.10
2018-12-15T05:18:04.573Z,-0.10
2018-12-15T05:20:32.138Z,0.00
2018-12-15T05:22:59.603Z,-0.10
2018-12-15T05:25:27.079Z,-0.30
2018-12-15T05:27:54.556Z,-0.50
2018-12-15T05:30:22.027Z,-0.30
2018-12-15T05:32:49.496Z,-0.20
2018-12-15T05:35:17.001Z,0.00
2018-12-15T05:37:44.463Z,0.20
2018-12-15T05:40:11.940Z,-0.10
2018-12-15T05:42:39.409Z,-0.40
2018-12-15T05:45:06.951Z,-0.50
2018-12-15T05:47:34.514Z,-0.30
2018-12-15T05:50:02.163Z,-0.10
2018-12-15T05:52:29.638Z,0.00
2018-12-15T05:54:57.117Z,-0.20
2018-12-15T05:57:24.587Z,-0.50
2018-12-15T05:59:52.282Z,-0.60
2018-12-15T06:02:20.082Z,-0.40
2018-12-15T06:04:47.555Z,-0.30
2018-12-15T06:07:15.035Z,-0.30
2018-12-15T06:09:42.499Z,-0.30
2018-12-15T06:12:09.971Z,-0.30
2018-12-15T06:14:37.591Z,-0.20
2018-12-15T06:17:05.078Z,-0.30
2018-12-15T06:19:32.699Z,-0.20
2018-12-15T06:22:00.168Z,-0.30
2018-12-15T06:24:27.671Z,-0.10
2018-12-15T06:26:55.141Z,0.00
2018-12-15T06:29:22.605Z,-0.10
2018-12-15T06:31:50.075Z,-0.30
2018-12-15T06:34:17.579Z,-0.30
2018-12-15T06:36:46.051Z,-0.40
2018-12-15T06:39:13.523Z,-0.50
2018-12-15T06:41:40.998Z,-0.50
2018-12-15T06:44:08.540Z,-0.50
2018-12-15T06:46:36.042Z,-0.50
2018-12-15T06:49:03.510Z,-0.50
2018-12-15T06:51:30.980Z,-0.50
2018-12-15T06:53:58.446Z,-0.40
2018-12-15T06:56:25.924Z,-0.40
2018-12-15T06:58:53.658Z,-0.40
2018-12-15T07:01:21.207Z,-0.40
2018-12-15T07:03:48.661Z,-0.40
2018-12-15T07:06:16.139Z,-0.30
2018-12-15T07:08:43.624Z,-0.40
2018-12-15T07:11:11.125Z,-0.40
2018-12-15T07:13:38.595Z,-0.40
2018-12-15T07:16:06.071Z,-0.40
2018-12-15T07:18:33.564Z,-0.40
2018-12-15T07:21:01.021Z,-0.40
2018-12-15T07:23:28.494Z,-0.40
2018-12-15T07:25:56.924Z,-0.40
2018-12-15T07:28:24.396Z,-0.40
2018-12-15T07:30:51.857Z,-0.40
2018-12-15T07:33:19.358Z,-0.40
2018-12-15T07:35:46.874Z,-0.40
2018-12-15T07:38:14.351Z,-0.40
2018-12-15T07:40:41.803Z,-0.40
2018-12-15T07:43:09.283Z,-0.40
2018-12-15T07:45:36.929Z,-0.40
2018-12-15T07:48:04.485Z,-0.40
2018-12-15T07:50:31.987Z,-0.40
2018-12-15T07:52:59.490Z,-0.40
2018-12-15T07:55:26.943Z,-0.40
2018-12-15T07:57:54.514Z,-0.40
2018-12-15T08:00:22.062Z,-0.40
2018-12-15T08:02:49.558Z,-0.40
2018-12-15T08:05:17.019Z,-0.40
2018-12-15T08:07:44.589Z,-0.40
2018-12-15T08:10:12.145Z,-0.40
2018-12-15T08:12:42.451Z,-0.40
2018-12-15T08:15:09.998Z,-0.40
2018-12-15T08:17:37.540Z,-0.40
2018-12-15T08:20:06.209Z,-0.40
2018-12-15T08:22:33.706Z,-0.40
2018-12-15T08:25:01.187Z,-0.30
2018-12-15T08:27:28.666Z,-0.30
2018-12-15T08:29:56.234Z,-0.30
2018-12-15T08:32:23.803Z,-0.30
2018-12-15T08:34:51.306Z,-0.40
2018-12-15T08:37:18.807Z,-0.30
2018-12-15T08:39:46.280Z,-0.30
2018-12-15T08:42:13.750Z,-0.30
2018-12-15T08:44:42.238Z,-0.30
2018-12-15T08:47:09.725Z,-0.30
2018-12-15T08:49:37.198Z,-0.30
2018-12-15T08:52:04.651Z,-0.30
2018-12-15T08:54:32.124Z,-0.30
2018-12-15T08:56:59.595Z,-0.30
2018-12-15T08:59:27.141Z,-0.30
2018-12-15T09:01:54.702Z,-0.30
2018-12-15T09:04:22.170Z,-0.30
2018-12-15T09:06:49.692Z,-0.30
2018-12-15T09:09:17.152Z,-0.30
2018-12-15T09:11:44.622Z,-0.20
2018-12-15T09:14:12.086Z,-0.20
2018-12-15T09:16:39.571Z,-0.30
2018-12-15T09:19:11.234Z,-0.20
2018-12-15T09:21:36.498Z,-0.20
2018-12-15T09:24:04.021Z,-0.20
2018-12-15T09:26:31.495Z,-0.30
2018-12-15T09:28:58.963Z,-0.30
2018-12-15T09:31:26.430Z,-0.20
2018-12-15T09:33:53.887Z,-0.20
2018-12-15T09:36:21.363Z,-0.20
2018-12-15T09:38:48.831Z,-0.20
2018-12-15T09:41:16.381Z,-0.20
2018-12-15T09:43:43.887Z,-0.10
2018-12-15T09:46:11.371Z,-0.10
2018-12-15T09:48:38.826Z,-0.20
2018-12-15T09:51:06.550Z,-0.10
2018-12-15T09:53:34.019Z,-0.20
2018-12-15T09:56:01.537Z,-0.10
2018-12-15T09:58:29.084Z,-0.10
2018-12-15T10:00:57.496Z,-0.10
2018-12-15T10:03:24.959Z,-0.10
2018-12-15T10:05:52.455Z,-0.10
2018-12-15T10:08:19.926Z,-0.10
2018-12-15T10:10:47.438Z,-0.10
2018-12-15T10:13:14.916Z,0.00
2018-12-15T10:15:42.374Z,0.00
2018-12-15T10:18:09.863Z,0.00
2018-12-15T10:20:37.339Z,0.00
2018-12-15T10:23:06.305Z,0.10
2018-12-15T10:25:33.926Z,0.10
2018-12-15T10:28:01.415Z,0.10
2018-12-15T10:30:34.504Z,0.10
2018-12-15T10:33:01.972Z,0.10
2018-12-15T10:35:29.430Z,0.20
2018-12-15T10:37:56.915Z,0.10
2018-12-15T10:40:24.432Z,0.10
2018-12-15T10:42:51.895Z,0.10
2018-12-15T10:45:19.441Z,0.10
2018-12-15T10:47:47.008Z,0.10
2018-12-15T10:50:14.750Z,0.20
2018-12-15T10:52:42.223Z,0.00
2018-12-15T10:55:11.726Z,0.00
2018-12-15T10:57:39.230Z,0.00
2018-12-15T11:00:10.202Z,0.10
2018-12-15T11:02:37.690Z,0.00
2018-12-15T11:05:05.603Z,0.10
2018-12-15T11:07:34.280Z,0.10
2018-12-15T11:10:01.944Z,0.10
2018-12-15T11:12:29.482Z,0.10
2018-12-15T11:14:56.950Z,0.00
2018-12-15T11:17:24.416Z,0.00
2018-12-15T11:19:51.923Z,0.00
2018-12-15T11:22:19.394Z,0.10
2018-12-15T11:24:46.987Z,0.20
2018-12-15T11:27:14.452Z,0.20
2018-12-15T11:29:41.928Z,0.10
2018-12-15T11:32:09.390Z,0.00
2018-12-15T11:34:36.855Z,0.00
2018-12-15T11:37:04.475Z,0.10
2018-12-15T11:39:31.983Z,0.00
2018-12-15T11:41:59.430Z,0.10
2018-12-15T11:44:26.903Z,0.10
2018-12-15T11:46:54.363Z,0.10
2018-12-15T11:49:21.845Z,0.20
2018-12-15T11:51:49.318Z,0.20
2018-12-15T11:54:16.786Z,0.10
2018-12-15T11:56:44.251Z,0.00
2018-12-15T11:59:11.707Z,0.00
2018-12-15T12:01:39.182Z,0.10
2018-12-15T12:04:06.649Z,0.10
2018-12-15T12:06:34.170Z,0.10
2018-12-15T12:09:01.652Z,0.10
2018-12-15T12:11:29.119Z,0.20
2018-12-15T12:14:00.267Z,0.10
2018-12-15T12:16:26.057Z,0.10
2018-12-15T12:18:53.538Z,0.00
2018-12-15T12:21:20.993Z,0.00
2018-12-15T12:23:48.459Z,0.10
2018-12-15T12:26:15.936Z,0.00
2018-12-15T12:28:43.437Z,0.00
2018-12-15T12:31:10.902Z,0.00
2018-12-15T12:33:38.378Z,0.00
2018-12-15T12:36:05.951Z,0.00
2018-12-15T12:38:33.414Z,0.10
2018-12-15T12:41:00.874Z,0.10
2018-12-15T12:43:28.351Z,0.10
2018-12-15T12:45:55.822Z,0.10
2018-12-15T12:48:23.359Z,0.00
2018-12-15T12:50:50.859Z,0.00
2018-12-15T12:53:18.341Z,-0.10
2018-12-15T12:55:45.812Z,-0.10
2018-12-15T12:58:13.319Z,-0.10
2018-12-15T13:00:40.786Z,0.00
2018-12-15T13:03:08.261Z,-0.10
2018-12-15T13:05:35.717Z,0.00
2018-12-15T13:08:03.180Z,0.00
2018-12-15T13:10:30.639Z,0.00
2018-12-15T13:12:58.106Z,-0.10
2018-12-15T13:15:25.624Z,-0.10
2018-12-15T13:17:53.081Z,-0.10
2018-12-15T13:20:20.593Z,-0.10
2018-12-15T13:22:48.062Z,-0.10
2018-12-15T13:25:15.550Z,-0.10
2018-12-15T13:27:43.055Z,0.00
2018-12-15T13:30:10.563Z,0.00
2018-12-15T13:32:38.109Z,0.00
2018-12-15T13:35:05.676Z,-0.10
2018-12-15T13:37:33.151Z,0.10
2018-12-15T13:40:00.654Z,0.10
2018-12-15T13:42:28.127Z,0.00
2018-12-15T13:44:55.614Z,0.00
2018-12-15T13:47:23.078Z,-0.10
2018-12-15T13:49:50.535Z,-0.10
2018-12-15T13:52:18.140Z,0.00
2018-12-15T13:54:45.603Z,0.00
2018-12-15T13:57:13.087Z,0.00
2018-12-15T13:59:40.650Z,0.00
2018-12-15T14:02:08.114Z,0.00
2018-12-15T14:04:35.585Z,0.00
2018-12-15T14:07:03.099Z,-0.10
2018-12-15T14:09:31.581Z,-0.10
2018-12-15T14:11:59.050Z,0.00
2018-12-15T14:14:26.511Z,0.00
2018-12-15T14:16:53.979Z,-0.20
2018-12-15T14:19:21.507Z,-0.20
2018-12-15T14:21:49.020Z,-0.20
2018-12-15T14:24:16.491Z,-0.30
2018-12-15T14:26:43.975Z,-0.30
2018-12-15T14:29:11.446Z,-0.30
2018-12-15T14:31:38.919Z,-0.30
2018-12-15T14:34:06.433Z,-0.30
2018-12-15T14:36:33.924Z,-0.30
2018-12-15T14:39:01.399Z,-0.40
2018-12-15T14:41:30.484Z,-0.30
2018-12-15T14:43:57.965Z,-0.30
2018-12-15T14:46:25.439Z,-0.30
2018-12-15T14:48:52.907Z,-0.30
2018-12-15T14:51:20.384Z,-0.30
2018-12-15T14:53:47.854Z,-0.30
2018-12-15T14:56:15.317Z,-0.30
2018-12-15T14:58:42.794Z,-0.30
2018-12-15T15:01:10.254Z,-0.20
2018-12-15T15:03:37.738Z,-0.30
2018-12-15T15:06:05.279Z,-0.30
2018-12-15T15:08:32.795Z,-0.30
2018-12-15T15:11:00.329Z,-0.30
2018-12-15T15:13:34.291Z,-0.10
2018-12-15T15:15:57.310Z,-0.30
2018-12-15T15:18:24.784Z,-0.40
2018-12-15T15:20:52.247Z,-0.50
2018-12-15T15:23:19.738Z,-0.50
2018-12-15T15:25:47.201Z,-0.40
2018-12-15T15:28:14.678Z,-0.50
2018-12-15T15:30:42.146Z,-0.50
2018-12-15T15:33:09.608Z,-0.50
2018-12-15T15:35:37.113Z,-0.60
2018-12-15T15:38:04.603Z,-0.60
2018-12-15T15:40:32.078Z,-0.60
2018-12-15T15:42:59.555Z,-0.60
2018-12-15T15:45:27.058Z,-0.60
2018-12-15T15:47:54.521Z,-0.60
2018-12-15T15:50:22.009Z,-0.60
2018-12-15T15:52:49.482Z,-0.60
2018-12-15T15:55:17.042Z,-0.60
2018-12-15T15:57:44.541Z,-0.60
2018-12-15T16:00:12.086Z,-0.60
2018-12-15T16:02:39.554Z,-0.60
2018-12-15T16:05:07.214Z,-0.60
2018-12-15T16:07:34.686Z,-0.60
2018-12-15T16:10:02.304Z,-0.60
2018-12-15T16:12:30.875Z,-0.60
2018-12-15T16:14:58.483Z,-0.60
2018-12-15T16:17:26.044Z,-0.60
2018-12-15T16:19:53.510Z,-0.70
2018-12-15T16:22:20.999Z,-0.70
2018-12-15T16:24:48.482Z,-0.60
2018-12-15T16:27:15.975Z,-0.50
2018-12-15T16:29:43.458Z,-0.70
2018-12-15T16:32:10.986Z,-0.70
2018-12-15T16:34:38.490Z,-0.70
2018-12-15T16:37:06.007Z,-0.70
2018-12-15T16:39:33.490Z,-0.60
2018-12-15T16:42:00.950Z,-0.70
2018-12-15T16:44:28.483Z,-0.70
2018-12-15T16:46:55.954Z,-0.60
2018-12-15T16:49:23.447Z,-0.80
2018-12-15T16:51:50.923Z,-0.80
2018-12-15T16:54:18.431Z,-0.80
2018-12-15T16:56:45.904Z,-0.80
2018-12-15T16:59:13.369Z,-0.70
2018-12-15T17:01:40.837Z,-0.80
2018-12-15T17:04:08.402Z,-0.70
2018-12-15T17:06:35.896Z,-0.80
2018-12-15T17:09:05.863Z,-0.80
2018-12-15T17:11:33.358Z,-0.80
2018-12-15T17:14:00.831Z,-0.80
2018-12-15T17:16:28.298Z,-0.70
2018-12-15T17:18:55.754Z,-0.80
2018-12-15T17:21:23.227Z,-0.80
2018-12-15T17:23:50.691Z,-0.80
2018-12-15T17:26:18.175Z,-0.80
2018-12-15T17:28:45.638Z,-0.90
2018-12-15T17:31:13.114Z,-0.80
2018-12-15T17:33:40.594Z,-0.90
2018-12-15T17:36:08.067Z,-0.90
2018-12-15T17:38:35.870Z,-0.80
2018-12-15T17:41:03.391Z,-0.90
2018-12-15T17:43:30.885Z,-0.90
2018-12-15T17:45:58.393Z,-0.90
2018-12-15T17:48:25.874Z,-0.90
2018-12-15T17:50:53.348Z,-0.90
2018-12-15T17:53:20.811Z,-0.90
2018-12-15T17:55:48.274Z,-0.90
2018-12-15T17:58:15.756Z,-0.90
2018-12-15T18:00:43.219Z,-0.90
2018-12-15T18:03:10.720Z,-0.90
2018-12-15T18:05:38.177Z,-0.90
2018-12-15T18:08:05.647Z,-1.00
2018-12-15T18:10:33.143Z,-0.90
2018-12-15T18:13:00.611Z,-0.90
2018-12-15T18:15:28.110Z,-1.00
2018-12-15T18:17:55.587Z,-1.00
2018-12-15T18:20:23.082Z,-1.00
2018-12-15T18:22:50.586Z,-1.00
2018-12-15T18:25:18.051Z,-1.00
2018-12-15T18:27:45.514Z,-1.00
2018-12-15T18:30:12.974Z,-1.00
2018-12-15T18:32:40.440Z,-1.00
2018-12-15T18:35:07.953Z,-1.00
2018-12-15T18:37:36.395Z,-1.00
2018-12-15T18:40:04.734Z,-1.00
2018-12-15T18:42:32.198Z,-1.00
2018-12-15T18:44:59.667Z,-1.10
2018-12-15T18:47:27.210Z,-1.10
2018-12-15T18:49:54.714Z,-1.10
2018-12-15T18:52:22.222Z,-1.10
2018-12-15T18:54:49.686Z,-1.10
2018-12-15T18:57:17.229Z,-1.10
2018-12-15T18:59:44.695Z,-1.00
2018-12-15T19:02:12.196Z,-1.10
2018-12-15T19:04:39.703Z,-1.10
2018-12-15T19:14:04.806Z,-1.10
2018-12-15T19:16:32.380Z,-1.10
2018-12-15T19:18:59.889Z,-1.10
2018-12-15T19:21:27.359Z,-1.10
2018-12-15T19:23:54.870Z,-1.20
2018-12-15T19:26:22.343Z,-1.20
2018-12-15T19:28:49.818Z,-1.20
2018-12-15T19:31:17.334Z,-1.20
2018-12-15T19:33:44.817Z,-1.20
2018-12-15T19:36:12.305Z,-1.30
2018-12-15T19:38:40.726Z,-1.30
2018-12-15T19:41:08.212Z,-1.30
2018-12-15T19:43:35.679Z,-1.30
2018-12-15T19:46:03.147Z,-1.30
2018-12-15T19:48:30.619Z,-1.40
2018-12-15T19:50:58.095Z,-1.40
2018-12-15T19:53:25.558Z,-1.40
2018-12-15T19:55:53.044Z,-1.50
2018-12-15T19:58:20.524Z,-1.50
2018-12-15T20:00:47.990Z,-1.60
2018-12-15T20:03:15.460Z,-1.60
2018-12-15T20:05:42.938Z,-1.70
2018-12-15T20:08:10.411Z,-1.70
2018-12-15T20:10:37.938Z,-1.80
2018-12-15T20:13:05.415Z,-1.90
2018-12-15T20:15:32.899Z,-1.80
2018-12-15T20:18:00.397Z,-1.80
2018-12-15T20:20:27.918Z,-1.80
2018-12-15T20:22:55.393Z,-1.90
2018-12-15T20:25:22.870Z,-1.90
2018-12-15T20:27:50.393Z,-2.00
2018-12-15T20:30:17.866Z,-2.00
2018-12-15T20:32:45.354Z,-2.10
2018-12-15T20:35:12.833Z,-2.10
2018-12-15T20:37:40.302Z,-2.10
2018-12-15T20:40:08.261Z,-2.10
2018-12-15T20:42:35.730Z,-2.20
2018-12-15T20:45:03.802Z,-2.20
2018-12-15T20:47:31.283Z,-2.10
2018-12-15T20:49:58.751Z,-2.20
2018-12-15T20:52:26.231Z,-2.20
2018-12-15T20:54:53.702Z,-2.20
2018-12-15T20:57:21.207Z,-2.10
2018-12-15T20:59:48.682Z,-2.10
2018-12-15T21:02:16.170Z,-2.10
2018-12-15T21:04:43.641Z,-2.10
2018-12-15T21:07:11.140Z,-2.10
2018-12-15T21:09:38.659Z,-2.10
2018-12-15T21:12:06.185Z,-2.10
2018-12-15T21:14:33.707Z,-2.00
2018-12-15T21:17:01.174Z,-2.00
2018-12-15T21:19:28.652Z,-2.10
2018-12-15T21:21:56.235Z,-2.10
2018-12-15T21:24:23.704Z,-2.00
2018-12-15T21:26:51.195Z,-2.00
2018-12-15T21:29:18.656Z,-2.00
2018-12-15T21:31:46.947Z,-1.90
2018-12-15T21:34:14.530Z,-1.90
2018-12-15T21:36:42.043Z,-1.90
2018-12-15T21:39:09.523Z,-2.00
2018-12-15T21:41:37.032Z,-1.90
2018-12-15T21:44:04.543Z,-1.90
2018-12-15T21:46:32.011Z,-1.90
2018-12-15T21:48:59.489Z,-2.00
2018-12-15T21:51:27.016Z,-1.90
2018-12-15T21:53:54.500Z,-2.00
2018-12-15T21:56:21.966Z,-2.00
2018-12-15T21:58:49.494Z,-2.10
2018-12-15T22:01:16.962Z,-2.10
2018-12-15T22:03:44.443Z,-2.20
2018-12-15T22:06:11.978Z,-2.20
2018-12-15T22:08:39.470Z,-2.20
2018-12-15T22:11:06.994Z,-2.20
2018-12-15T22:13:34.526Z,-2.20
2018-12-15T22:16:02.008Z,-2.30
2018-12-15T22:18:29.483Z,-2.30
2018-12-15T22:20:57.190Z,-2.30
2018-12-15T22:23:24.699Z,-2.30
2018-12-15T22:25:52.210Z,-2.30
2018-12-15T22:28:19.687Z,-2.30
2018-12-15T22:30:47.151Z,-2.40
2018-12-15T22:33:14.674Z,-2.50
2018-12-15T22:35:42.143Z,-2.50
2018-12-15T22:38:09.612Z,-2.50
2018-12-15T22:40:37.110Z,-2.50
2018-12-15T22:43:04.583Z,-2.50
2018-12-15T22:45:32.080Z,-2.50
2018-12-15T22:47:59.552Z,-2.60
2018-12-15T22:50:27.034Z,-2.60
2018-12-15T22:52:54.543Z,-2.70
2018-12-15T22:55:22.042Z,-2.70
2018-12-15T22:57:49.515Z,-2.70
2018-12-15T23:00:16.986Z,-2.60
2018-12-15T23:02:44.470Z,-2.70
2018-12-15T23:05:12.030Z,-2.70
2018-12-15T23:07:39.498Z,-2.80
2018-12-15T23:10:07.294Z,-2.80
2018-12-15T23:12:34.775Z,-2.80
2018-12-15T23:15:02.258Z,-2.90
2018-12-15T23:17:29.725Z,-2.90
2018-12-15T23:19:57.206Z,-2.90
2018-12-15T23:22:24.712Z,-2.90
2018-12-15T23:24:52.227Z,-3.00
2018-12-15T23:27:19.700Z,-2.90
2018-12-15T23:29:47.198Z,-3.10
2018-12-15T23:32:14.798Z,-3.10
2018-12-15T23:34:42.280Z,-3.10
2018-12-15T23:37:09.751Z,-3.10
2018-12-15T23:39:37.237Z,-3.10
2018-12-15T23:42:04.716Z,-3.10
2018-12-15T23:44:32.235Z,-3.10
2018-12-15T23:46:59.724Z,-2.90
2018-12-15T23:49:27.195Z,-2.80
2018-12-15T23:51:54.678Z,-2.90
2018-12-15T23:54:22.171Z,-3.00
2018-12-15T23:56:49.658Z,-3.00
2018-12-15T23:59:17.135Z,-3.00
